sensor_id;sensor_type;location;lat;lon;timestamp;pressure;altitude;pressure_sealevel;temperature;humidity
55301;BME280;58302;51.446;-2.000;2023-03-03T00:00:37;101880.75;;;-0.48;100.00
55301;BME280;58302;51.446;-2.000;2023-03-03T00:03:04;101875.81;;;-0.61;100.00
55301;BME280;58302;51.446;-2.000;2023-03-03T00:05:31;101874.94;;;-0.69;100.00
55301;BME280;58302;51.446;-2.000;2023-03-03T00:07:58;101878.38;;;-0.51;100.00
55301;BME280;58302;51.446;-2.000;2023-03-03T00:10:24;101880.84;;;-0.32;100.00
55301;BME280;58302;51.446;-2.000;2023-03-03T00:12:50;101880.38;;;-0.27;100.00
55301;BME280;58302;51.446;-2.000;2023-03-03T00:15:17;101882.25;;;-0.19;100.00
55301;BME280;58302;51.446;-2.000;2023-03-03T00:17:43;101876.72;;;-0.18;100.00
55301;BME280;58302;51.446;-2.000;2023-03-03T00:22:47;101876.59;;;-0.16;100.00
55301;BME280;58302;51.446;-2.000;2023-03-03T00:25:23;101879.47;;;-0.02;100.00
55301;BME280;58302;51.446;-2.000;2023-03-03T00:27:52;101880.66;;;0.04;100.00
55301;BME280;58302;51.446;-2.000;2023-03-03T00:30:26;101879.88;;;0.12;100.00
55301;BME280;58302;51.446;-2.000;2023-03-03T00:32:52;101885.72;;;0.15;100.00
55301;BME280;58302;51.446;-2.000;2023-03-03T00:35:23;101883.38;;;0.12;100.00
55301;BME280;58302;51.446;-2.000;2023-03-03T00:37:52;101881.59;;;0.29;100.00
55301;BME280;58302;51.446;-2.000;2023-03-03T00:40:40;101879.63;;;0.47;100.00
55301;BME280;58302;51.446;-2.000;2023-03-03T00:43:20;101880.16;;;0.51;100.00
55301;BME280;58302;51.446;-2.000;2023-03-03T00:48:19;101880.16;;;0.59;100.00
55301;BME280;58302;51.446;-2.000;2023-03-03T00:50:45;101883.00;;;0.66;100.00
55301;BME280;58302;51.446;-2.000;2023-03-03T00:53:17;101880.00;;;0.69;100.00
55301;BME280;58302;51.446;-2.000;2023-03-03T00:55:44;101886.53;;;0.74;100.00
55301;BME280;58302;51.446;-2.000;2023-03-03T00:58:11;101881.88;;;0.85;100.00
55301;BME280;58302;51.446;-2.000;2023-03-03T01:00:37;101877.34;;;0.93;100.00
55301;BME280;58302;51.446;-2.000;2023-03-03T01:03:04;101884.06;;;1.05;100.00
55301;BME280;58302;51.446;-2.000;2023-03-03T01:05:30;101880.53;;;1.13;100.00
55301;BME280;58302;51.446;-2.000;2023-03-03T01:07:56;101879.88;;;1.19;100.00
55301;BME280;58302;51.446;-2.000;2023-03-03T01:10:22;101879.03;;;1.27;100.00
55301;BME280;58302;51.446;-2.000;2023-03-03T01:12:48;101884.72;;;1.32;100.00
55301;BME280;58302;51.446;-2.000;2023-03-03T01:15:14;101881.69;;;1.35;100.00
55301;BME280;58302;51.446;-2.000;2023-03-03T01:17:40;101871.63;;;1.37;100.00
55301;BME280;58302;51.446;-2.000;2023-03-03T01:20:07;101878.19;;;1.35;100.00
55301;BME280;58302;51.446;-2.000;2023-03-03T01:22:33;101881.50;;;1.37;100.00
55301;BME280;58302;51.446;-2.000;2023-03-03T01:24:59;101888.91;;;1.35;100.00
55301;BME280;58302;51.446;-2.000;2023-03-03T01:27:24;101889.72;;;1.35;100.00
55301;BME280;58302;51.446;-2.000;2023-03-03T01:29:52;101889.72;;;1.35;100.00
55301;BME280;58302;51.446;-2.000;2023-03-03T01:32:18;101893.25;;;1.36;100.00
55301;BME280;58302;51.446;-2.000;2023-03-03T01:34:43;101896.09;;;1.34;100.00
55301;BME280;58302;51.446;-2.000;2023-03-03T01:37:09;101898.09;;;1.40;100.00
55301;BME280;58302;51.446;-2.000;2023-03-03T01:39:35;101901.09;;;1.37;100.00
55301;BME280;58302;51.446;-2.000;2023-03-03T01:42:01;101908.16;;;1.38;100.00
55301;BME280;58302;51.446;-2.000;2023-03-03T01:44:27;101900.75;;;1.48;100.00
55301;BME280;58302;51.446;-2.000;2023-03-03T01:49:25;101911.97;;;1.60;100.00
55301;BME280;58302;51.446;-2.000;2023-03-03T01:51:53;101904.91;;;1.67;100.00
55301;BME280;58302;51.446;-2.000;2023-03-03T01:54:24;101913.28;;;1.72;100.00
55301;BME280;58302;51.446;-2.000;2023-03-03T01:56:51;101910.41;;;1.82;100.00
55301;BME280;58302;51.446;-2.000;2023-03-03T01:59:20;101914.41;;;1.86;100.00
55301;BME280;58302;51.446;-2.000;2023-03-03T02:01:48;101916.25;;;1.94;100.00
55301;BME280;58302;51.446;-2.000;2023-03-03T02:04:14;101914.84;;;2.06;100.00
55301;BME280;58302;51.446;-2.000;2023-03-03T02:06:41;101911.78;;;2.17;100.00
55301;BME280;58302;51.446;-2.000;2023-03-03T02:11:37;101920.97;;;2.31;100.00
55301;BME280;58302;51.446;-2.000;2023-03-03T02:14:05;101916.25;;;2.33;100.00
55301;BME280;58302;51.446;-2.000;2023-03-03T02:16:31;101916.38;;;2.40;100.00
55301;BME280;58302;51.446;-2.000;2023-03-03T02:18:57;101911.38;;;2.36;100.00
55301;BME280;58302;51.446;-2.000;2023-03-03T02:21:23;101916.38;;;2.40;100.00
55301;BME280;58302;51.446;-2.000;2023-03-03T02:23:55;101913.31;;;2.51;100.00
55301;BME280;58302;51.446;-2.000;2023-03-03T02:26:24;101905.06;;;2.52;100.00
55301;BME280;58302;51.446;-2.000;2023-03-03T02:28:51;101905.25;;;2.51;100.00
55301;BME280;58302;51.446;-2.000;2023-03-03T02:31:18;101918.66;;;2.51;100.00
55301;BME280;58302;51.446;-2.000;2023-03-03T02:33:46;101913.00;;;2.46;100.00
55301;BME280;58302;51.446;-2.000;2023-03-03T02:36:13;101917.00;;;2.50;100.00
55301;BME280;58302;51.446;-2.000;2023-03-03T02:38:50;101907.59;;;2.54;100.00
55301;BME280;58302;51.446;-2.000;2023-03-03T02:46:31;101906.69;;;2.61;100.00
55301;BME280;58302;51.446;-2.000;2023-03-03T02:48:57;101909.75;;;2.58;100.00
55301;BME280;58302;51.446;-2.000;2023-03-03T02:51:22;101900.84;;;2.58;100.00
55301;BME280;58302;51.446;-2.000;2023-03-03T02:53:48;101910.59;;;2.59;100.00
55301;BME280;58302;51.446;-2.000;2023-03-03T02:56:14;101898.47;;;2.63;100.00
55301;BME280;58302;51.446;-2.000;2023-03-03T02:58:40;101899.97;;;2.66;100.00
55301;BME280;58302;51.446;-2.000;2023-03-03T03:01:06;101901.97;;;2.63;100.00
55301;BME280;58302;51.446;-2.000;2023-03-03T03:03:31;101902.84;;;2.64;100.00
55301;BME280;58302;51.446;-2.000;2023-03-03T03:05:57;101908.38;;;2.62;100.00
55301;BME280;58302;51.446;-2.000;2023-03-03T03:08:23;101898.47;;;2.63;100.00
55301;BME280;58302;51.446;-2.000;2023-03-03T03:10:49;101905.22;;;2.59;100.00
55301;BME280;58302;51.446;-2.000;2023-03-03T03:13:15;101906.53;;;2.63;100.00
55301;BME280;58302;51.446;-2.000;2023-03-03T03:15:41;101905.69;;;2.62;100.00
55301;BME280;58302;51.446;-2.000;2023-03-03T03:18:06;101909.56;;;2.60;100.00
55301;BME280;58302;51.446;-2.000;2023-03-03T03:20:38;101907.22;;;2.57;100.00
55301;BME280;58302;51.446;-2.000;2023-03-03T03:23:07;101909.38;;;2.61;100.00
55301;BME280;58302;51.446;-2.000;2023-03-03T03:25:33;101912.50;;;2.73;100.00
55301;BME280;58302;51.446;-2.000;2023-03-03T03:28:00;101905.69;;;2.85;100.00
55301;BME280;58302;51.446;-2.000;2023-03-03T03:30:26;101896.66;;;2.86;100.00
55301;BME280;58302;51.446;-2.000;2023-03-03T03:32:52;101896.09;;;2.91;100.00
55301;BME280;58302;51.446;-2.000;2023-03-03T03:35:17;101904.00;;;2.93;100.00
55301;BME280;58302;51.446;-2.000;2023-03-03T03:37:43;101894.72;;;2.95;100.00
55301;BME280;58302;51.446;-2.000;2023-03-03T03:40:09;101901.75;;;2.96;100.00
55301;BME280;58302;51.446;-2.000;2023-03-03T03:42:35;101898.09;;;2.97;100.00
55301;BME280;58302;51.446;-2.000;2023-03-03T03:45:02;101894.53;;;2.97;100.00
55301;BME280;58302;51.446;-2.000;2023-03-03T03:47:27;101893.25;;;2.93;100.00
55301;BME280;58302;51.446;-2.000;2023-03-03T03:49:53;101898.78;;;2.91;100.00
55301;BME280;58302;51.446;-2.000;2023-03-03T03:52:19;101899.75;;;2.98;100.00
55301;BME280;58302;51.446;-2.000;2023-03-03T03:54:44;101896.25;;;2.98;100.00
55301;BME280;58302;51.446;-2.000;2023-03-03T03:57:10;101888.81;;;3.00;100.00
55301;BME280;58302;51.446;-2.000;2023-03-03T03:59:36;101893.91;;;2.95;100.00
55301;BME280;58302;51.446;-2.000;2023-03-03T04:02:01;101902.25;;;3.00;100.00
55301;BME280;58302;51.446;-2.000;2023-03-03T04:04:27;101901.31;;;2.93;100.00
55301;BME280;58302;51.446;-2.000;2023-03-03T04:06:53;101901.66;;;2.89;100.00
55301;BME280;58302;51.446;-2.000;2023-03-03T04:09:19;101899.75;;;2.98;100.00
55301;BME280;58302;51.446;-2.000;2023-03-03T04:11:44;101898.38;;;3.02;100.00
55301;BME280;58302;51.446;-2.000;2023-03-03T04:14:10;101903.91;;;3.01;100.00
55301;BME280;58302;51.446;-2.000;2023-03-03T04:16:36;101905.66;;;2.94;100.00
55301;BME280;58302;51.446;-2.000;2023-03-03T04:19:01;101901.31;;;2.93;100.00
55301;BME280;58302;51.446;-2.000;2023-03-03T04:21:27;101900.94;;;2.96;100.00
55301;BME280;58302;51.446;-2.000;2023-03-03T04:23:53;101891.50;;;3.00;100.00
55301;BME280;58302;51.446;-2.000;2023-03-03T04:26:19;101896.25;;;2.98;100.00
55301;BME280;58302;51.446;-2.000;2023-03-03T04:28:44;101898.53;;;3.01;100.00
55301;BME280;58302;51.446;-2.000;2023-03-03T04:31:10;101900.22;;;3.02;100.00
55301;BME280;58302;51.446;-2.000;2023-03-03T04:33:36;101902.59;;;2.97;100.00
55301;BME280;58302;51.446;-2.000;2023-03-03T04:36:02;101894.28;;;2.92;100.00
55301;BME280;58302;51.446;-2.000;2023-03-03T04:38:28;101891.84;;;2.97;100.00
55301;BME280;58302;51.446;-2.000;2023-03-03T04:40:54;101897.59;;;2.94;100.00
55301;BME280;58302;51.446;-2.000;2023-03-03T04:43:20;101893.41;;;2.91;100.00
55301;BME280;58302;51.446;-2.000;2023-03-03T04:45:46;101888.53;;;2.95;100.00
55301;BME280;58302;51.446;-2.000;2023-03-03T04:48:12;101891.41;;;2.93;100.00
55301;BME280;58302;51.446;-2.000;2023-03-03T04:50:37;101898.97;;;2.89;100.00
55301;BME280;58302;51.446;-2.000;2023-03-03T04:53:03;101894.44;;;2.90;100.00
55301;BME280;58302;51.446;-2.000;2023-03-03T04:55:29;101890.56;;;2.93;100.00
55301;BME280;58302;51.446;-2.000;2023-03-03T04:57:55;101887.50;;;2.96;100.00
55301;BME280;58302;51.446;-2.000;2023-03-03T05:00:20;101893.19;;;3.01;100.00
55301;BME280;58302;51.446;-2.000;2023-03-03T05:02:46;101896.69;;;3.01;100.00
55301;BME280;58302;51.446;-2.000;2023-03-03T05:05:12;101891.16;;;3.03;100.00
55301;BME280;58302;51.446;-2.000;2023-03-03T05:07:38;101905.03;;;3.06;100.00
55301;BME280;58302;51.446;-2.000;2023-03-03T05:10:04;101901.91;;;3.03;100.00
55301;BME280;58302;51.446;-2.000;2023-03-03T05:12:30;101907.56;;;3.08;100.00
55301;BME280;58302;51.446;-2.000;2023-03-03T05:14:56;101906.91;;;3.06;100.00
55301;BME280;58302;51.446;-2.000;2023-03-03T05:17:21;101905.72;;;3.08;100.00
55301;BME280;58302;51.446;-2.000;2023-03-03T05:19:47;101910.91;;;3.10;100.00
55301;BME280;58302;51.446;-2.000;2023-03-03T05:22:13;101907.72;;;3.06;100.00
55301;BME280;58302;51.446;-2.000;2023-03-03T05:24:38;101909.78;;;3.04;100.00
55301;BME280;58302;51.446;-2.000;2023-03-03T05:27:04;101902.84;;;3.10;100.00
55301;BME280;58302;51.446;-2.000;2023-03-03T05:29:30;101905.88;;;3.07;100.00
55301;BME280;58302;51.446;-2.000;2023-03-03T05:31:56;101911.75;;;3.10;100.00
55301;BME280;58302;51.446;-2.000;2023-03-03T05:34:22;101902.66;;;3.11;100.00
55301;BME280;58302;51.446;-2.000;2023-03-03T05:36:48;101911.44;;;3.05;100.00
55301;BME280;58302;51.446;-2.000;2023-03-03T05:39:14;101907.91;;;3.05;100.00
55301;BME280;58302;51.446;-2.000;2023-03-03T05:41:40;101909.59;;;3.06;100.00
55301;BME280;58302;51.446;-2.000;2023-03-03T05:44:06;101907.56;;;3.08;100.00
55301;BME280;58302;51.446;-2.000;2023-03-03T05:46:31;101910.59;;;3.05;100.00
55301;BME280;58302;51.446;-2.000;2023-03-03T05:48:57;101912.28;;;3.06;100.00
55301;BME280;58302;51.446;-2.000;2023-03-03T05:51:23;101910.78;;;3.03;100.00
55301;BME280;58302;51.446;-2.000;2023-03-03T05:53:49;101914.66;;;3.01;100.00
55301;BME280;58302;51.446;-2.000;2023-03-03T05:56:14;101911.31;;;2.99;100.00
55301;BME280;58302;51.446;-2.000;2023-03-03T05:58:40;101918.72;;;2.97;100.00
55301;BME280;58302;51.446;-2.000;2023-03-03T06:01:06;101916.69;;;2.99;100.00
55301;BME280;58302;51.446;-2.000;2023-03-03T06:03:32;101911.66;;;2.96;100.00
55301;BME280;58302;51.446;-2.000;2023-03-03T06:05:57;101915.19;;;2.96;100.00
55301;BME280;58302;51.446;-2.000;2023-03-03T06:08:23;101913.34;;;2.97;100.00
55301;BME280;58302;51.446;-2.000;2023-03-03T06:10:49;101914.00;;;2.99;100.00
55301;BME280;58302;51.446;-2.000;2023-03-03T06:13:15;101919.56;;;2.97;100.00
55301;BME280;58302;51.446;-2.000;2023-03-03T06:15:40;101916.41;;;2.94;100.00
55301;BME280;58302;51.446;-2.000;2023-03-03T06:18:07;101919.09;;;2.94;100.00
55301;BME280;58302;51.446;-2.000;2023-03-03T06:20:32;101919.28;;;2.92;100.00
55301;BME280;58302;51.446;-2.000;2023-03-03T06:22:59;101915.38;;;2.95;100.00
55301;BME280;58302;51.446;-2.000;2023-03-03T06:25:25;101914.34;;;2.96;100.00
55301;BME280;58302;51.446;-2.000;2023-03-03T06:27:51;101919.72;;;2.96;100.00
55301;BME280;58302;51.446;-2.000;2023-03-03T06:30:17;101924.63;;;2.92;100.00
55301;BME280;58302;51.446;-2.000;2023-03-03T06:32:44;101917.94;;;2.88;100.00
55301;BME280;58302;51.446;-2.000;2023-03-03T06:35:10;101920.25;;;2.91;100.00
55301;BME280;58302;51.446;-2.000;2023-03-03T06:37:36;101912.69;;;2.95;100.00
55301;BME280;58302;51.446;-2.000;2023-03-03T06:40:03;101916.41;;;2.94;100.00
55301;BME280;58302;51.446;-2.000;2023-03-03T06:42:29;101925.28;;;2.94;100.00
55301;BME280;58302;51.446;-2.000;2023-03-03T06:44:55;101919.56;;;2.97;100.00
55301;BME280;58302;51.446;-2.000;2023-03-03T06:47:20;101926.75;;;2.97;100.00
55301;BME280;58302;51.446;-2.000;2023-03-03T06:49:46;101925.41;;;3.01;100.00
55301;BME280;58302;51.446;-2.000;2023-03-03T06:52:14;101929.44;;;2.97;100.00
55301;BME280;58302;51.446;-2.000;2023-03-03T06:54:42;101931.50;;;2.95;100.00
55301;BME280;58302;51.446;-2.000;2023-03-03T06:57:42;101939.13;;;3.06;100.00
55301;BME280;58302;51.446;-2.000;2023-03-03T07:02:35;101936.25;;;3.07;100.00
55301;BME280;58302;51.446;-2.000;2023-03-03T07:05:00;101938.78;;;3.09;100.00
55301;BME280;58302;51.446;-2.000;2023-03-03T07:07:26;101936.94;;;3.09;100.00
55301;BME280;58302;51.446;-2.000;2023-03-03T07:09:53;101935.25;;;3.08;100.00
55301;BME280;58302;51.446;-2.000;2023-03-03T07:12:20;101945.63;;;3.11;100.00
55301;BME280;58302;51.446;-2.000;2023-03-03T07:14:48;101952.50;;;3.14;100.00
55301;BME280;58302;51.446;-2.000;2023-03-03T07:17:20;101950.47;;;3.16;100.00
55301;BME280;58302;51.446;-2.000;2023-03-03T07:19:47;101955.50;;;3.19;100.00
55301;BME280;58302;51.446;-2.000;2023-03-03T07:22:17;101965.03;;;3.22;100.00
55301;BME280;58302;51.446;-2.000;2023-03-03T07:24:44;101969.22;;;3.24;100.00
55301;BME280;58302;51.446;-2.000;2023-03-03T07:27:13;101968.03;;;3.27;100.00
55301;BME280;58302;51.446;-2.000;2023-03-03T07:29:41;101972.19;;;3.29;100.00
55301;BME280;58302;51.446;-2.000;2023-03-03T07:32:41;101972.69;;;3.33;100.00
55301;BME280;58302;51.446;-2.000;2023-03-03T07:34:59;101964.44;;;3.34;100.00
55301;BME280;58302;51.446;-2.000;2023-03-03T07:37:28;101977.50;;;3.37;100.00
55301;BME280;58302;51.446;-2.000;2023-03-03T07:39:55;101973.28;;;3.43;100.00
55301;BME280;58302;51.446;-2.000;2023-03-03T07:44:54;101982.75;;;3.54;100.00
55301;BME280;58302;51.446;-2.000;2023-03-03T07:49:47;101985.06;;;3.57;100.00
55301;BME280;58302;51.446;-2.000;2023-03-03T07:52:24;101992.88;;;3.66;100.00
55301;BME280;58302;51.446;-2.000;2023-03-03T07:54:53;101987.78;;;3.72;100.00
55301;BME280;58302;51.446;-2.000;2023-03-03T07:57:21;101990.69;;;3.70;100.00
55301;BME280;58302;51.446;-2.000;2023-03-03T07:59:52;101987.59;;;3.73;100.00
55301;BME280;58302;51.446;-2.000;2023-03-03T08:04:48;101992.81;;;3.75;100.00
55301;BME280;58302;51.446;-2.000;2023-03-03T08:07:15;101988.47;;;3.74;100.00
55301;BME280;58302;51.446;-2.000;2023-03-03T08:09:42;101991.91;;;3.82;100.00
55301;BME280;58302;51.446;-2.000;2023-03-03T08:12:20;101993.84;;;3.88;100.00
55301;BME280;58302;51.446;-2.000;2023-03-03T08:14:47;101994.97;;;3.94;100.00
55301;BME280;58302;51.446;-2.000;2023-03-03T08:17:16;102002.31;;;4.00;100.00
55301;BME280;58302;51.446;-2.000;2023-03-03T08:19:44;102001.97;;;4.03;100.00
55301;BME280;58302;51.446;-2.000;2023-03-03T08:22:17;102009.47;;;4.08;100.00
55301;BME280;58302;51.446;-2.000;2023-03-03T08:24:43;102012.81;;;4.10;100.00
55301;BME280;58302;51.446;-2.000;2023-03-03T08:27:09;102018.56;;;4.21;100.00
55301;BME280;58302;51.446;-2.000;2023-03-03T08:29:35;102020.63;;;4.34;100.00
55301;BME280;58302;51.446;-2.000;2023-03-03T08:32:00;102019.06;;;4.40;100.00
55301;BME280;58302;51.446;-2.000;2023-03-03T08:34:26;102024.72;;;4.30;100.00
55301;BME280;58302;51.446;-2.000;2023-03-03T08:36:52;102029.69;;;4.33;100.00
55301;BME280;58302;51.446;-2.000;2023-03-03T08:39:18;102031.28;;;4.42;100.00
55301;BME280;58302;51.446;-2.000;2023-03-03T08:41:44;102032.50;;;4.55;100.00
55301;BME280;58302;51.446;-2.000;2023-03-03T08:44:10;102031.19;;;4.65;100.00
55301;BME280;58302;51.446;-2.000;2023-03-03T08:46:36;102035.81;;;4.71;100.00
55301;BME280;58302;51.446;-2.000;2023-03-03T08:49:02;102035.81;;;4.86;100.00
55301;BME280;58302;51.446;-2.000;2023-03-03T08:51:28;102032.91;;;5.02;100.00
55301;BME280;58302;51.446;-2.000;2023-03-03T08:53:53;102029.84;;;5.06;100.00
55301;BME280;58302;51.446;-2.000;2023-03-03T08:56:19;102029.28;;;4.95;100.00
55301;BME280;58302;51.446;-2.000;2023-03-03T08:58:45;102031.78;;;4.97;100.00
55301;BME280;58302;51.446;-2.000;2023-03-03T09:01:13;102032.91;;;5.02;100.00
55301;BME280;58302;51.446;-2.000;2023-03-03T09:03:40;102025.72;;;5.10;100.00
55301;BME280;58302;51.446;-2.000;2023-03-03T09:06:05;102030.28;;;5.09;100.00
55301;BME280;58302;51.446;-2.000;2023-03-03T09:08:31;102036.50;;;5.10;100.00
55301;BME280;58302;51.446;-2.000;2023-03-03T09:10:57;102038.00;;;5.12;100.00
55301;BME280;58302;51.446;-2.000;2023-03-03T09:13:22;102042.63;;;5.03;100.00
55301;BME280;58302;51.446;-2.000;2023-03-03T09:15:48;102031.09;;;5.10;100.00
55301;BME280;58302;51.446;-2.000;2023-03-03T09:18:18;102040.47;;;5.14;100.00
55301;BME280;58302;51.446;-2.000;2023-03-03T09:20:48;102045.88;;;5.14;100.00
55301;BME280;58302;51.446;-2.000;2023-03-03T09:25:56;102043.81;;;5.16;100.00
55301;BME280;58302;51.446;-2.000;2023-03-03T09:30:49;102049.53;;;5.06;100.00
55301;BME280;58302;51.446;-2.000;2023-03-03T09:33:18;102055.75;;;5.07;100.00
55301;BME280;58302;51.446;-2.000;2023-03-03T09:35:46;102053.59;;;5.17;100.00
55301;BME280;58302;51.446;-2.000;2023-03-03T09:40:48;102045.09;;;5.20;100.00
55301;BME280;58302;51.446;-2.000;2023-03-03T09:43:20;102047.16;;;5.18;100.00
55301;BME280;58302;51.446;-2.000;2023-03-03T09:45:53;102053.19;;;5.20;100.00
55301;BME280;58302;51.446;-2.000;2023-03-03T09:56:08;102058.97;;;5.17;100.00
55301;BME280;58302;51.446;-2.000;2023-03-03T10:04:13;102058.88;;;5.10;100.00
55301;BME280;58302;51.446;-2.000;2023-03-03T10:12:04;102068.81;;;5.10;100.00
55301;BME280;58302;51.446;-2.000;2023-03-03T10:19:51;102074.25;;;5.31;100.00
55301;BME280;58302;51.446;-2.000;2023-03-03T10:22:46;102065.25;;;5.39;100.00
55301;BME280;58302;51.446;-2.000;2023-03-03T10:27:43;102078.00;;;5.51;100.00
55301;BME280;58302;51.446;-2.000;2023-03-03T10:33:01;102072.63;;;5.51;100.00
55301;BME280;58302;51.446;-2.000;2023-03-03T10:40:42;102072.72;;;5.86;100.00
55301;BME280;58302;51.446;-2.000;2023-03-03T10:45:59;102077.03;;;5.80;100.00
55301;BME280;58302;51.446;-2.000;2023-03-03T10:53:52;102084.09;;;5.60;100.00
55301;BME280;58302;51.446;-2.000;2023-03-03T10:58:45;102087.25;;;5.64;100.00
55301;BME280;58302;51.446;-2.000;2023-03-03T11:08:55;102092.28;;;5.67;100.00
55301;BME280;58302;51.446;-2.000;2023-03-03T11:11:30;102090.69;;;5.72;100.00
55301;BME280;58302;51.446;-2.000;2023-03-03T11:14:22;102089.69;;;5.80;100.00
55301;BME280;58302;51.446;-2.000;2023-03-03T11:19:38;102095.25;;;5.72;100.00
55301;BME280;58302;51.446;-2.000;2023-03-03T11:22:08;102100.38;;;5.88;100.00
55301;BME280;58302;51.446;-2.000;2023-03-03T11:24:56;102088.84;;;5.94;100.00
55301;BME280;58302;51.446;-2.000;2023-03-03T11:27:30;102098.31;;;6.12;100.00
55301;BME280;58302;51.446;-2.000;2023-03-03T11:32:48;102089.03;;;6.21;100.00
55301;BME280;58302;51.446;-2.000;2023-03-03T11:40:15;102097.44;;;6.32;100.00
55301;BME280;58302;51.446;-2.000;2023-03-03T11:42:51;102101.66;;;6.42;100.00
55301;BME280;58302;51.446;-2.000;2023-03-03T11:45:22;102098.41;;;6.53;100.00
55301;BME280;58302;51.446;-2.000;2023-03-03T11:50:20;102099.09;;;6.62;100.00
55301;BME280;58302;51.446;-2.000;2023-03-03T11:55:26;102108.03;;;6.06;100.00
55301;BME280;58302;51.446;-2.000;2023-03-03T11:58:11;102099.09;;;6.05;100.00
55301;BME280;58302;51.446;-2.000;2023-03-03T12:10:55;102091.25;;;6.73;100.00
55301;BME280;58302;51.446;-2.000;2023-03-03T12:26:52;102094.34;;;6.70;100.00
55301;BME280;58302;51.446;-2.000;2023-03-03T12:35:05;102070.50;;;7.28;100.00
55301;BME280;58302;51.446;-2.000;2023-03-03T12:40:18;102078.44;;;7.36;100.00
55301;BME280;58302;51.446;-2.000;2023-03-03T12:47:59;102075.88;;;7.22;100.00
55301;BME280;58302;51.446;-2.000;2023-03-03T12:50:32;102071.44;;;7.01;100.00
55301;BME280;58302;51.446;-2.000;2023-03-03T12:58:20;102067.91;;;7.00;100.00
55301;BME280;58302;51.446;-2.000;2023-03-03T13:00:53;102059.78;;;7.00;100.00
55301;BME280;58302;51.446;-2.000;2023-03-03T13:03:35;102059.88;;;7.20;100.00
55301;BME280;58302;51.446;-2.000;2023-03-03T13:06:08;102057.22;;;7.40;100.00
55301;BME280;58302;51.446;-2.000;2023-03-03T13:08:58;102056.81;;;7.63;100.00
55301;BME280;58302;51.446;-2.000;2023-03-03T13:11:35;102053.53;;;7.94;100.00
55301;BME280;58302;51.446;-2.000;2023-03-03T13:17:07;102052.25;;;8.16;100.00
55301;BME280;58302;51.446;-2.000;2023-03-03T13:19:39;102052.69;;;8.07;100.00
55301;BME280;58302;51.446;-2.000;2023-03-03T13:22:14;102047.50;;;7.92;100.00
55301;BME280;58302;51.446;-2.000;2023-03-03T13:25:06;102046.84;;;7.63;100.00
55301;BME280;58302;51.446;-2.000;2023-03-03T13:27:43;102046.13;;;7.15;100.00
55301;BME280;58302;51.446;-2.000;2023-03-03T13:30:20;102039.78;;;6.81;100.00
55301;BME280;58302;51.446;-2.000;2023-03-03T13:35:18;102041.38;;;6.34;100.00
55301;BME280;58302;51.446;-2.000;2023-03-03T13:37:48;102042.09;;;6.50;100.00
55301;BME280;58302;51.446;-2.000;2023-03-03T13:45:20;102038.25;;;6.72;100.00
55301;BME280;58302;51.446;-2.000;2023-03-03T13:50:25;102046.34;;;6.66;100.00
55301;BME280;58302;51.446;-2.000;2023-03-03T13:55:23;102044.50;;;6.73;100.00
55301;BME280;58302;51.446;-2.000;2023-03-03T14:08:29;102037.41;;;6.65;100.00
55301;BME280;58302;51.446;-2.000;2023-03-03T14:13:28;102036.28;;;6.53;100.00
55301;BME280;58302;51.446;-2.000;2023-03-03T14:21:20;102033.47;;;6.33;100.00
55301;BME280;58302;51.446;-2.000;2023-03-03T14:23:51;102022.50;;;6.41;100.00
55301;BME280;58302;51.446;-2.000;2023-03-03T14:26:21;102024.66;;;6.52;100.00
55301;BME280;58302;51.446;-2.000;2023-03-03T14:28:48;102022.31;;;6.43;100.00
55301;BME280;58302;51.446;-2.000;2023-03-03T14:31:25;102027.81;;;6.21;100.00
55301;BME280;58302;51.446;-2.000;2023-03-03T14:36:25;102016.47;;;6.04;100.00
55301;BME280;58302;51.446;-2.000;2023-03-03T14:38:51;102015.81;;;6.02;100.00
55301;BME280;58302;51.446;-2.000;2023-03-03T14:41:17;102019.34;;;6.03;100.00
55301;BME280;58302;51.446;-2.000;2023-03-03T14:43:59;102013.06;;;5.96;100.00
55301;BME280;58302;51.446;-2.000;2023-03-03T14:48:52;102007.69;;;5.74;100.00
55301;BME280;58302;51.446;-2.000;2023-03-03T14:51:24;102003.38;;;5.80;100.00
55301;BME280;58302;51.446;-2.000;2023-03-03T14:53:51;101998.22;;;5.85;100.00
55301;BME280;58302;51.446;-2.000;2023-03-03T14:58:47;101995.84;;;5.97;100.00
55301;BME280;58302;51.446;-2.000;2023-03-03T15:01:28;101990.56;;;6.10;100.00
55301;BME280;58302;51.446;-2.000;2023-03-03T15:06:34;101989.50;;;6.04;100.00
55301;BME280;58302;51.446;-2.000;2023-03-03T15:09:20;101979.75;;;6.10;100.00
55301;BME280;58302;51.446;-2.000;2023-03-03T15:11:52;101989.03;;;6.01;100.00
55301;BME280;58302;51.446;-2.000;2023-03-03T15:14:18;101984.09;;;5.83;100.00
55301;BME280;58302;51.446;-2.000;2023-03-03T15:16:45;101986.06;;;5.68;100.00
55301;BME280;58302;51.446;-2.000;2023-03-03T15:19:28;101984.56;;;5.65;100.00
55301;BME280;58302;51.446;-2.000;2023-03-03T15:24:37;101978.16;;;5.66;100.00
55301;BME280;58302;51.446;-2.000;2023-03-03T15:34:53;101973.19;;;5.70;100.00
55301;BME280;58302;51.446;-2.000;2023-03-03T15:37:37;101975.53;;;5.73;100.00
55301;BME280;58302;51.446;-2.000;2023-03-03T15:58:13;101978.63;;;5.27;100.00
55301;BME280;58302;51.446;-2.000;2023-03-03T16:03:26;101980.56;;;5.33;100.00
55301;BME280;58302;51.446;-2.000;2023-03-03T16:05:56;101986.66;;;5.42;100.00
55301;BME280;58302;51.446;-2.000;2023-03-03T16:08:38;101981.13;;;5.50;100.00
55301;BME280;58302;51.446;-2.000;2023-03-03T16:11:20;101987.53;;;5.49;100.00
55301;BME280;58302;51.446;-2.000;2023-03-03T16:32:10;102005.06;;;4.95;100.00
55301;BME280;58302;51.446;-2.000;2023-03-03T16:37:11;102004.78;;;4.90;100.00
55301;BME280;58302;51.446;-2.000;2023-03-03T16:52:11;102001.56;;;4.80;100.00
55301;BME280;58302;51.446;-2.000;2023-03-03T16:54:49;102004.59;;;4.77;100.00
55301;BME280;58302;51.446;-2.000;2023-03-03T16:57:33;101999.41;;;4.75;100.00
55301;BME280;58302;51.446;-2.000;2023-03-03T17:00:06;102001.28;;;4.75;100.00